sensor_id;sensor_type;location;lat;lon;timestamp;pressure;altitude;pressure_sealevel;temperature;humidity
46718;BME280;32448;44.960;-0.698;2024-01-15T00:00:20;101073.59;;;4.49;100.00
46718;BME280;32448;44.960;-0.698;2024-01-15T00:02:47;101078.28;;;4.57;100.00
46718;BME280;32448;44.960;-0.698;2024-01-15T00:05:14;101086.53;;;4.68;100.00
46718;BME280;32448;44.960;-0.698;2024-01-15T00:07:41;101063.88;;;4.62;100.00
46718;BME280;32448;44.960;-0.698;2024-01-15T00:10:08;101054.25;;;4.60;100.00
46718;BME280;32448;44.960;-0.698;2024-01-15T00:12:35;101063.31;;;4.69;100.00
46718;BME280;32448;44.960;-0.698;2024-01-15T00:15:02;101056.97;;;4.63;100.00
46718;BME280;32448;44.960;-0.698;2024-01-15T00:17:28;101063.47;;;4.72;100.00
46718;BME280;32448;44.960;-0.698;2024-01-15T00:19:55;101054.66;;;4.69;100.00
46718;BME280;32448;44.960;-0.698;2024-01-15T00:22:25;101057.25;;;4.69;100.00
46718;BME280;32448;44.960;-0.698;2024-01-15T00:24:53;101060.94;;;4.74;100.00
46718;BME280;32448;44.960;-0.698;2024-01-15T00:27:21;101074.06;;;4.79;100.00
46718;BME280;32448;44.960;-0.698;2024-01-15T00:29:48;101068.91;;;4.79;100.00
46718;BME280;32448;44.960;-0.698;2024-01-15T00:32:17;101062.00;;;4.79;100.00
46718;BME280;32448;44.960;-0.698;2024-01-15T00:34:43;101072.69;;;4.87;100.00
46718;BME280;32448;44.960;-0.698;2024-01-15T00:37:10;101060.53;;;4.84;100.00
46718;BME280;32448;44.960;-0.698;2024-01-15T00:39:37;101066.78;;;4.89;100.00
46718;BME280;32448;44.960;-0.698;2024-01-15T00:42:04;101059.75;;;4.87;100.00
46718;BME280;32448;44.960;-0.698;2024-01-15T00:44:31;101059.22;;;4.94;100.00
46718;BME280;32448;44.960;-0.698;2024-01-15T00:46:58;101058.47;;;4.96;100.00
46718;BME280;32448;44.960;-0.698;2024-01-15T00:49:26;101058.53;;;4.98;100.00
46718;BME280;32448;44.960;-0.698;2024-01-15T00:51:54;101032.13;;;4.86;100.00
46718;BME280;32448;44.960;-0.698;2024-01-15T00:54:20;101036.00;;;4.95;100.00
46718;BME280;32448;44.960;-0.698;2024-01-15T00:56:47;101012.97;;;4.82;100.00
46718;BME280;32448;44.960;-0.698;2024-01-15T00:59:14;101023.78;;;4.93;100.00
46718;BME280;32448;44.960;-0.698;2024-01-15T01:01:44;101041.41;;;5.01;100.00
46718;BME280;32448;44.960;-0.698;2024-01-15T01:04:12;101037.13;;;5.02;100.00
46718;BME280;32448;44.960;-0.698;2024-01-15T01:06:39;101038.16;;;5.05;100.00
46718;BME280;32448;44.960;-0.698;2024-01-15T01:09:06;101035.50;;;5.04;100.00
46718;BME280;32448;44.960;-0.698;2024-01-15T01:11:33;101026.91;;;5.05;100.00
46718;BME280;32448;44.960;-0.698;2024-01-15T01:14:00;101031.38;;;5.09;100.00
46718;BME280;32448;44.960;-0.698;2024-01-15T01:16:28;101026.34;;;5.12;100.00
46718;BME280;32448;44.960;-0.698;2024-01-15T01:18:55;101029.22;;;5.18;100.00
46718;BME280;32448;44.960;-0.698;2024-01-15T01:21:22;101037.22;;;5.24;100.00
46718;BME280;32448;44.960;-0.698;2024-01-15T01:23:48;100983.63;;;5.02;100.00
46718;BME280;32448;44.960;-0.698;2024-01-15T01:26:17;101011.16;;;5.21;100.00
46718;BME280;32448;44.960;-0.698;2024-01-15T01:28:44;101003.22;;;5.17;100.00
46718;BME280;32448;44.960;-0.698;2024-01-15T01:31:11;101011.38;;;5.26;100.00
46718;BME280;32448;44.960;-0.698;2024-01-15T01:33:38;101007.00;;;5.25;100.00
46718;BME280;32448;44.960;-0.698;2024-01-15T01:36:09;100968.00;;;5.01;100.00
46718;BME280;32448;44.960;-0.698;2024-01-15T01:38:37;101019.53;;;5.35;100.00
46718;BME280;32448;44.960;-0.698;2024-01-15T01:41:04;100991.41;;;5.23;100.00
46718;BME280;32448;44.960;-0.698;2024-01-15T01:43:31;101013.47;;;5.34;100.00
46718;BME280;32448;44.960;-0.698;2024-01-15T01:46:00;101002.78;;;5.27;100.00
46718;BME280;32448;44.960;-0.698;2024-01-15T01:48:28;101001.91;;;5.26;100.00
46718;BME280;32448;44.960;-0.698;2024-01-15T01:50:59;101023.22;;;5.40;100.00
46718;BME280;32448;44.960;-0.698;2024-01-15T01:53:26;101017.22;;;5.41;100.00
46718;BME280;32448;44.960;-0.698;2024-01-15T01:55:55;101006.63;;;5.36;100.00
46718;BME280;32448;44.960;-0.698;2024-01-15T01:58:23;101018.94;;;5.42;100.00
46718;BME280;32448;44.960;-0.698;2024-01-15T02:00:52;101016.44;;;5.43;100.00
46718;BME280;32448;44.960;-0.698;2024-01-15T02:03:20;101015.53;;;5.43;100.00
46718;BME280;32448;44.960;-0.698;2024-01-15T02:05:48;101008.72;;;5.45;100.00
46718;BME280;32448;44.960;-0.698;2024-01-15T02:08:16;100975.34;;;5.32;100.00
46718;BME280;32448;44.960;-0.698;2024-01-15T02:10:43;100990.66;;;5.46;100.00
46718;BME280;32448;44.960;-0.698;2024-01-15T02:13:10;100989.81;;;5.47;100.00
46718;BME280;32448;44.960;-0.698;2024-01-15T02:15:37;100995.16;;;5.51;100.00
46718;BME280;32448;44.960;-0.698;2024-01-15T02:18:05;100970.34;;;5.36;100.00
46718;BME280;32448;44.960;-0.698;2024-01-15T02:20:34;100990.06;;;5.54;100.00
46718;BME280;32448;44.960;-0.698;2024-01-15T02:23:14;100977.09;;;5.54;100.00
46718;BME280;32448;44.960;-0.698;2024-01-15T02:25:42;100960.63;;;5.52;100.00
46718;BME280;32448;44.960;-0.698;2024-01-15T02:28:13;100923.72;;;5.36;100.00
46718;BME280;32448;44.960;-0.698;2024-01-15T02:30:41;100951.06;;;5.51;100.00
46718;BME280;32448;44.960;-0.698;2024-01-15T02:33:09;100967.00;;;5.60;100.00
46718;BME280;32448;44.960;-0.698;2024-01-15T02:35:37;100953.06;;;5.58;100.00
46718;BME280;32448;44.960;-0.698;2024-01-15T02:38:05;100944.41;;;5.57;100.00
46718;BME280;32448;44.960;-0.698;2024-01-15T02:40:34;100937.28;;;5.52;100.00
46718;BME280;32448;44.960;-0.698;2024-01-15T02:43:01;100907.41;;;5.39;100.00
46718;BME280;32448;44.960;-0.698;2024-01-15T02:45:28;100928.78;;;5.56;100.00
46718;BME280;32448;44.960;-0.698;2024-01-15T02:47:56;100928.78;;;5.56;100.00
46718;BME280;32448;44.960;-0.698;2024-01-15T02:50:23;100921.75;;;5.53;100.00
46718;BME280;32448;44.960;-0.698;2024-01-15T02:52:49;100916.34;;;5.47;100.00
46718;BME280;32448;44.960;-0.698;2024-01-15T02:55:16;100925.91;;;5.48;100.00
46718;BME280;32448;44.960;-0.698;2024-01-15T02:57:43;100922.56;;;5.51;100.00
46718;BME280;32448;44.960;-0.698;2024-01-15T03:00:11;100927.03;;;5.55;100.00
46718;BME280;32448;44.960;-0.698;2024-01-15T03:02:39;100921.59;;;5.48;100.00
46718;BME280;32448;44.960;-0.698;2024-01-15T03:05:10;100919.00;;;5.48;100.00
46718;BME280;32448;44.960;-0.698;2024-01-15T03:07:37;100884.69;;;5.33;100.00
46718;BME280;32448;44.960;-0.698;2024-01-15T03:10:05;100901.50;;;5.43;100.00
46718;BME280;32448;44.960;-0.698;2024-01-15T03:12:32;100891.19;;;5.44;100.00
46718;BME280;32448;44.960;-0.698;2024-01-15T03:14:59;100891.25;;;5.46;100.00
46718;BME280;32448;44.960;-0.698;2024-01-15T03:17:26;100887.91;;;5.48;100.00
46718;BME280;32448;44.960;-0.698;2024-01-15T03:19:53;100885.25;;;5.47;100.00
46718;BME280;32448;44.960;-0.698;2024-01-15T03:22:20;100881.59;;;5.42;100.00
46718;BME280;32448;44.960;-0.698;2024-01-15T03:24:47;100878.88;;;5.39;100.00
46718;BME280;32448;44.960;-0.698;2024-01-15T03:27:14;100874.19;;;5.30;100.00
46718;BME280;32448;44.960;-0.698;2024-01-15T03:29:41;100887.28;;;5.33;100.00
46718;BME280;32448;44.960;-0.698;2024-01-15T03:32:08;100883.72;;;5.30;100.00
46718;BME280;32448;44.960;-0.698;2024-01-15T03:34:35;100868.78;;;5.24;100.00
46718;BME280;32448;44.960;-0.698;2024-01-15T03:37:02;100876.56;;;5.24;100.00
46718;BME280;32448;44.960;-0.698;2024-01-15T03:39:30;100861.53;;;5.16;100.00
46718;BME280;32448;44.960;-0.698;2024-01-15T03:41:57;100863.47;;;5.21;100.00
46718;BME280;32448;44.960;-0.698;2024-01-15T03:44:24;100866.00;;;5.20;100.00
46718;BME280;32448;44.960;-0.698;2024-01-15T03:46:50;100869.63;;;5.23;100.00
46718;BME280;32448;44.960;-0.698;2024-01-15T03:49:17;100863.41;;;5.20;100.00
46718;BME280;32448;44.960;-0.698;2024-01-15T03:51:44;100864.44;;;5.23;100.00
46718;BME280;32448;44.960;-0.698;2024-01-15T03:54:11;100840.94;;;5.19;100.00
46718;BME280;32448;44.960;-0.698;2024-01-15T03:56:38;100834.88;;;5.18;100.00
46718;BME280;32448;44.960;-0.698;2024-01-15T03:59:05;100828.88;;;5.19;100.00
46718;BME280;32448;44.960;-0.698;2024-01-15T04:01:32;100818.25;;;5.13;100.00
46718;BME280;32448;44.960;-0.698;2024-01-15T04:03:59;100809.38;;;5.06;100.00
46718;BME280;32448;44.960;-0.698;2024-01-15T04:06:25;100840.22;;;5.23;100.00
46718;BME280;32448;44.960;-0.698;2024-01-15T04:08:52;100849.97;;;5.28;100.00
46718;BME280;32448;44.960;-0.698;2024-01-15T04:11:19;100834.06;;;5.19;100.00
46718;BME280;32448;44.960;-0.698;2024-01-15T04:13:46;100825.09;;;5.11;100.00
46718;BME280;32448;44.960;-0.698;2024-01-15T04:16:13;100845.53;;;5.26;100.00
46718;BME280;32448;44.960;-0.698;2024-01-15T04:18:39;100848.13;;;5.26;100.00
46718;BME280;32448;44.960;-0.698;2024-01-15T04:21:06;100853.44;;;5.29;100.00
46718;BME280;32448;44.960;-0.698;2024-01-15T04:23:33;100854.19;;;5.26;100.00
46718;BME280;32448;44.960;-0.698;2024-01-15T04:26:00;100834.88;;;5.18;100.00
46718;BME280;32448;44.960;-0.698;2024-01-15T04:28:27;100830.53;;;5.17;100.00
46718;BME280;32448;44.960;-0.698;2024-01-15T04:30:54;100834.81;;;5.17;100.00
46718;BME280;32448;44.960;-0.698;2024-01-15T04:33:21;100793.56;;;5.00;100.00
46718;BME280;32448;44.960;-0.698;2024-01-15T04:35:49;100818.19;;;5.11;100.00
46718;BME280;32448;44.960;-0.698;2024-01-15T04:38:15;100826.03;;;5.13;100.00
46718;BME280;32448;44.960;-0.698;2024-01-15T04:40:42;100826.97;;;5.15;100.00
46718;BME280;32448;44.960;-0.698;2024-01-15T04:43:09;100811.25;;;5.10;100.00
46718;BME280;32448;44.960;-0.698;2024-01-15T04:45:36;100801.47;;;5.03;100.00
46718;BME280;32448;44.960;-0.698;2024-01-15T04:48:03;100806.06;;;5.10;100.00
46718;BME280;32448;44.960;-0.698;2024-01-15T04:50:30;100823.72;;;5.21;100.00
46718;BME280;32448;44.960;-0.698;2024-01-15T04:52:57;100795.59;;;5.07;100.00
46718;BME280;32448;44.960;-0.698;2024-01-15T04:55:23;100798.63;;;5.18;100.00
46718;BME280;32448;44.960;-0.698;2024-01-15T04:57:50;100810.78;;;5.21;100.00
46718;BME280;32448;44.960;-0.698;2024-01-15T05:00:17;100799.44;;;5.17;100.00
46718;BME280;32448;44.960;-0.698;2024-01-15T05:02:44;100808.31;;;5.24;100.00
46718;BME280;32448;44.960;-0.698;2024-01-15T05:05:12;100794.31;;;5.19;100.00
46718;BME280;32448;44.960;-0.698;2024-01-15T05:07:38;100800.41;;;5.21;100.00
46718;BME280;32448;44.960;-0.698;2024-01-15T05:10:06;100788.34;;;5.21;100.00
46718;BME280;32448;44.960;-0.698;2024-01-15T05:12:34;100796.47;;;5.30;100.00
46718;BME280;32448;44.960;-0.698;2024-01-15T05:15:01;100795.69;;;5.33;100.00
46718;BME280;32448;44.960;-0.698;2024-01-15T05:17:28;100784.22;;;5.26;100.00
46718;BME280;32448;44.960;-0.698;2024-01-15T05:19:55;100762.28;;;5.17;100.00
46718;BME280;32448;44.960;-0.698;2024-01-15T05:22:22;100785.41;;;5.34;100.00
46718;BME280;32448;44.960;-0.698;2024-01-15T05:24:51;100780.41;;;5.39;100.00
46718;BME280;32448;44.960;-0.698;2024-01-15T05:27:18;100776.03;;;5.38;100.00
46718;BME280;32448;44.960;-0.698;2024-01-15T05:29:45;100772.63;;;5.39;100.00
46718;BME280;32448;44.960;-0.698;2024-01-15T05:32:14;100751.44;;;5.27;100.00
46718;BME280;32448;44.960;-0.698;2024-01-15T05:34:41;100779.72;;;5.44;100.00
46718;BME280;32448;44.960;-0.698;2024-01-15T05:37:08;100781.38;;;5.42;100.00
46718;BME280;32448;44.960;-0.698;2024-01-15T05:39:37;100782.31;;;5.44;100.00
46718;BME280;32448;44.960;-0.698;2024-01-15T05:42:04;100777.16;;;5.44;100.00
46718;BME280;32448;44.960;-0.698;2024-01-15T05:44:31;100790.41;;;5.52;100.00
46718;BME280;32448;44.960;-0.698;2024-01-15T05:46:58;100781.69;;;5.50;100.00
46718;BME280;32448;44.960;-0.698;2024-01-15T05:49:24;100772.16;;;5.49;100.00
46718;BME280;32448;44.960;-0.698;2024-01-15T05:51:51;100769.63;;;5.51;100.00
46718;BME280;32448;44.960;-0.698;2024-01-15T05:54:19;100755.47;;;5.42;100.00
46718;BME280;32448;44.960;-0.698;2024-01-15T05:56:46;100763.63;;;5.53;100.00
46718;BME280;32448;44.960;-0.698;2024-01-15T05:59:13;100756.72;;;5.52;100.00
46718;BME280;32448;44.960;-0.698;2024-01-15T06:01:41;100757.69;;;5.56;100.00
46718;BME280;32448;44.960;-0.698;2024-01-15T06:04:08;100760.28;;;5.56;100.00
46718;BME280;32448;44.960;-0.698;2024-01-15T06:06:35;100757.69;;;5.56;100.00
46718;BME280;32448;44.960;-0.698;2024-01-15T06:09:02;100760.41;;;5.59;100.00
46718;BME280;32448;44.960;-0.698;2024-01-15T06:11:32;100737.63;;;5.50;100.00
46718;BME280;32448;44.960;-0.698;2024-01-15T06:13:59;100751.69;;;5.57;100.00
46718;BME280;32448;44.960;-0.698;2024-01-15T06:16:29;100755.28;;;5.60;100.00
46718;BME280;32448;44.960;-0.698;2024-01-15T06:18:56;100754.44;;;5.61;100.00
46718;BME280;32448;44.960;-0.698;2024-01-15T06:21:24;100758.84;;;5.64;100.00
46718;BME280;32448;44.960;-0.698;2024-01-15T06:23:51;100732.31;;;5.47;100.00
46718;BME280;32448;44.960;-0.698;2024-01-15T06:26:17;100732.44;;;5.50;100.00
46718;BME280;32448;44.960;-0.698;2024-01-15T06:28:44;100765.03;;;5.67;100.00
46718;BME280;32448;44.960;-0.698;2024-01-15T06:31:12;100751.25;;;5.68;100.00
46718;BME280;32448;44.960;-0.698;2024-01-15T06:33:40;100743.41;;;5.67;100.00
46718;BME280;32448;44.960;-0.698;2024-01-15T06:36:07;100746.81;;;5.66;100.00
46718;BME280;32448;44.960;-0.698;2024-01-15T06:38:34;100728.47;;;5.60;100.00
46718;BME280;32448;44.960;-0.698;2024-01-15T06:41:01;100745.16;;;5.68;100.00
46718;BME280;32448;44.960;-0.698;2024-01-15T06:43:28;100735.63;;;5.67;100.00
46718;BME280;32448;44.960;-0.698;2024-01-15T06:45:54;100736.56;;;5.69;100.00
46718;BME280;32448;44.960;-0.698;2024-01-15T06:48:21;100722.72;;;5.68;100.00
46718;BME280;32448;44.960;-0.698;2024-01-15T06:50:49;100737.44;;;5.69;100.00
46718;BME280;32448;44.960;-0.698;2024-01-15T06:53:16;100725.25;;;5.67;100.00
46718;BME280;32448;44.960;-0.698;2024-01-15T06:55:42;100734.84;;;5.69;100.00
46718;BME280;32448;44.960;-0.698;2024-01-15T06:58:09;100741.19;;;5.77;100.00
46718;BME280;32448;44.960;-0.698;2024-01-15T07:00:37;100730.88;;;5.79;100.00
46718;BME280;32448;44.960;-0.698;2024-01-15T07:03:04;100736.13;;;5.80;100.00
46718;BME280;32448;44.960;-0.698;2024-01-15T07:05:31;100734.28;;;5.78;100.00
46718;BME280;32448;44.960;-0.698;2024-01-15T07:07:59;100727.25;;;5.74;100.00
46718;BME280;32448;44.960;-0.698;2024-01-15T07:10:26;100730.06;;;5.80;100.00
46718;BME280;32448;44.960;-0.698;2024-01-15T07:12:53;100739.81;;;5.87;100.00
46718;BME280;32448;44.960;-0.698;2024-01-15T07:15:20;100742.38;;;5.87;100.00
46718;BME280;32448;44.960;-0.698;2024-01-15T07:17:47;100722.28;;;5.80;100.00
46718;BME280;32448;44.960;-0.698;2024-01-15T07:20:14;100700.25;;;5.69;100.00
46718;BME280;32448;44.960;-0.698;2024-01-15T07:22:41;100732.03;;;5.87;100.00
46718;BME280;32448;44.960;-0.698;2024-01-15T07:25:08;100742.78;;;5.96;100.00
46718;BME280;32448;44.960;-0.698;2024-01-15T07:27:34;100733.22;;;5.95;100.00
46718;BME280;32448;44.960;-0.698;2024-01-15T07:30:02;100724.63;;;5.96;100.00
46718;BME280;32448;44.960;-0.698;2024-01-15T07:32:31;100735.91;;;5.98;100.00
46718;BME280;32448;44.960;-0.698;2024-01-15T07:34:58;100722.03;;;5.96;100.00
46718;BME280;32448;44.960;-0.698;2024-01-15T07:37:26;100723.88;;;6.00;100.00
46718;BME280;32448;44.960;-0.698;2024-01-15T07:39:53;100713.38;;;5.97;100.00
46718;BME280;32448;44.960;-0.698;2024-01-15T07:42:20;100731.78;;;6.03;100.00
46718;BME280;32448;44.960;-0.698;2024-01-15T07:44:47;100732.66;;;6.04;100.00
46718;BME280;32448;44.960;-0.698;2024-01-15T07:47:14;100737.06;;;6.06;100.00
46718;BME280;32448;44.960;-0.698;2024-01-15T07:49:41;100737.16;;;6.09;100.00
46718;BME280;32448;44.960;-0.698;2024-01-15T07:52:09;100737.31;;;6.14;100.00
46718;BME280;32448;44.960;-0.698;2024-01-15T07:54:36;100745.22;;;6.17;100.00
46718;BME280;32448;44.960;-0.698;2024-01-15T07:57:03;100726.69;;;6.06;100.00
46718;BME280;32448;44.960;-0.698;2024-01-15T07:59:30;100681.78;;;5.83;100.00
46718;BME280;32448;44.960;-0.698;2024-01-15T08:01:59;100738.34;;;6.19;100.00
46718;BME280;32448;44.960;-0.698;2024-01-15T08:04:26;100740.91;;;6.17;100.00
46718;BME280;32448;44.960;-0.698;2024-01-15T08:06:53;100732.31;;;6.18;100.00
46718;BME280;32448;44.960;-0.698;2024-01-15T08:09:20;100736.63;;;6.19;100.00
46718;BME280;32448;44.960;-0.698;2024-01-15T08:11:50;100746.41;;;6.27;100.00
46718;BME280;32448;44.960;-0.698;2024-01-15T08:14:17;100710.31;;;6.07;100.00
46718;BME280;32448;44.960;-0.698;2024-01-15T08:16:44;100736.63;;;6.19;100.00
46718;BME280;32448;44.960;-0.698;2024-01-15T08:19:11;100748.13;;;6.26;100.00
46718;BME280;32448;44.960;-0.698;2024-01-15T08:21:38;100738.34;;;6.19;100.00
46718;BME280;32448;44.960;-0.698;2024-01-15T08:24:05;100755.91;;;6.26;100.00
46718;BME280;32448;44.960;-0.698;2024-01-15T08:26:32;100752.53;;;6.29;100.00
46718;BME280;32448;44.960;-0.698;2024-01-15T08:28:59;100753.44;;;6.29;100.00
46718;BME280;32448;44.960;-0.698;2024-01-15T08:31:26;100751.78;;;6.33;100.00
46718;BME280;32448;44.960;-0.698;2024-01-15T08:33:54;100745.78;;;6.34;100.00
46718;BME280;32448;44.960;-0.698;2024-01-15T08:36:22;100746.72;;;6.36;100.00
46718;BME280;32448;44.960;-0.698;2024-01-15T08:38:50;100758.16;;;6.42;100.00
46718;BME280;32448;44.960;-0.698;2024-01-15T08:41:17;100763.00;;;6.57;100.00
46718;BME280;32448;44.960;-0.698;2024-01-15T08:43:44;100749.91;;;6.54;100.00
46718;BME280;32448;44.960;-0.698;2024-01-15T08:46:11;100755.09;;;6.54;100.00
46718;BME280;32448;44.960;-0.698;2024-01-15T08:48:38;100748.88;;;6.49;100.00
46718;BME280;32448;44.960;-0.698;2024-01-15T08:51:06;100755.25;;;6.58;100.00
46718;BME280;32448;44.960;-0.698;2024-01-15T08:53:35;100761.38;;;6.61;100.00
46718;BME280;32448;44.960;-0.698;2024-01-15T08:56:01;100758.88;;;6.64;100.00
46718;BME280;32448;44.960;-0.698;2024-01-15T08:58:28;100758.91;;;6.65;100.00
46718;BME280;32448;44.960;-0.698;2024-01-15T09:00:55;100751.19;;;6.67;100.00
46718;BME280;32448;44.960;-0.698;2024-01-15T09:03:23;100752.28;;;6.73;100.00
46718;BME280;32448;44.960;-0.698;2024-01-15T09:05:49;100763.13;;;6.88;100.00
46718;BME280;32448;44.960;-0.698;2024-01-15T09:08:17;100747.31;;;6.81;100.00
46718;BME280;32448;44.960;-0.698;2024-01-15T09:10:44;100746.56;;;6.85;100.00
46718;BME280;32448;44.960;-0.698;2024-01-15T09:13:12;100738.69;;;6.82;100.00
46718;BME280;32448;44.960;-0.698;2024-01-15T09:15:39;100725.59;;;6.79;100.00
46718;BME280;32448;44.960;-0.698;2024-01-15T09:18:06;100764.25;;;6.97;100.00
46718;BME280;32448;44.960;-0.698;2024-01-15T09:20:34;100761.75;;;7.00;100.00
46718;BME280;32448;44.960;-0.698;2024-01-15T09:23:01;100741.63;;;6.92;100.00
46718;BME280;32448;44.960;-0.698;2024-01-15T09:25:29;100769.97;;;7.13;100.00
46718;BME280;32448;44.960;-0.698;2024-01-15T09:27:56;100763.19;;;7.17;100.00
46718;BME280;32448;44.960;-0.698;2024-01-15T09:30:23;100768.50;;;7.21;100.00
46718;BME280;32448;44.960;-0.698;2024-01-15T09:32:50;100769.53;;;7.26;100.00
46718;BME280;32448;44.960;-0.698;2024-01-15T09:35:17;100766.78;;;7.22;100.00
46718;BME280;32448;44.960;-0.698;2024-01-15T09:37:46;100770.78;;;7.41;100.00
46718;BME280;32448;44.960;-0.698;2024-01-15T09:40:14;100753.38;;;7.37;100.00
46718;BME280;32448;44.960;-0.698;2024-01-15T09:42:43;100765.16;;;7.55;100.00
46718;BME280;32448;44.960;-0.698;2024-01-15T09:45:11;100768.75;;;7.59;100.00
46718;BME280;32448;44.960;-0.698;2024-01-15T09:47:40;100775.25;;;7.73;100.00
46718;BME280;32448;44.960;-0.698;2024-01-15T09:50:13;100764.06;;;7.77;100.00
46718;BME280;32448;44.960;-0.698;2024-01-15T09:52:43;100772.06;;;7.85;100.00
46718;BME280;32448;44.960;-0.698;2024-01-15T09:55:11;100780.16;;;7.94;100.00
46718;BME280;32448;44.960;-0.698;2024-01-15T09:57:39;100784.59;;;7.98;100.00
46718;BME280;32448;44.960;-0.698;2024-01-15T10:00:07;100783.75;;;7.99;100.00
46718;BME280;32448;44.960;-0.698;2024-01-15T10:02:38;100778.75;;;8.07;100.00
46718;BME280;32448;44.960;-0.698;2024-01-15T10:05:05;100774.50;;;8.10;100.00
46718;BME280;32448;44.960;-0.698;2024-01-15T10:07:35;100780.03;;;8.22;100.00
46718;BME280;32448;44.960;-0.698;2024-01-15T10:10:02;100782.78;;;8.27;100.00
46718;BME280;32448;44.960;-0.698;2024-01-15T10:12:32;100774.94;;;8.25;100.00
46718;BME280;32448;44.960;-0.698;2024-01-15T10:14:59;100783.72;;;8.30;100.00
46718;BME280;32448;44.960;-0.698;2024-01-15T10:17:26;100796.13;;;8.37;100.00
46718;BME280;32448;44.960;-0.698;2024-01-15T10:19:55;100791.84;;;8.41;100.00
46718;BME280;32448;44.960;-0.698;2024-01-15T10:22:22;100790.22;;;8.45;100.00
46718;BME280;32448;44.960;-0.698;2024-01-15T10:24:49;100773.63;;;8.41;100.00
46718;BME280;32448;44.960;-0.698;2024-01-15T10:27:17;100771.13;;;8.46;100.00
46718;BME280;32448;44.960;-0.698;2024-01-15T10:29:43;100775.59;;;8.51;100.00
46718;BME280;32448;44.960;-0.698;2024-01-15T10:32:11;100769.50;;;8.49;100.00
46718;BME280;32448;44.960;-0.698;2024-01-15T10:34:39;100746.53;;;8.34;100.00
46718;BME280;32448;44.960;-0.698;2024-01-15T10:37:10;100773.00;;;8.51;100.00
46718;BME280;32448;44.960;-0.698;2024-01-15T10:39:37;100774.81;;;8.54;100.00
46718;BME280;32448;44.960;-0.698;2024-01-15T10:42:05;100770.56;;;8.57;100.00
46718;BME280;32448;44.960;-0.698;2024-01-15T10:44:34;100768.94;;;8.61;100.00
46718;BME280;32448;44.960;-0.698;2024-01-15T10:47:02;100764.69;;;8.66;100.00
46718;BME280;32448;44.960;-0.698;2024-01-15T10:49:29;100764.81;;;8.70;100.00
46718;BME280;32448;44.960;-0.698;2024-01-15T10:52:02;100760.53;;;8.72;100.00
46718;BME280;32448;44.960;-0.698;2024-01-15T10:54:31;100763.28;;;8.79;100.00
46718;BME280;32448;44.960;-0.698;2024-01-15T10:56:58;100758.19;;;8.83;100.00
46718;BME280;32448;44.960;-0.698;2024-01-15T10:59:25;100759.06;;;8.85;100.00
46718;BME280;32448;44.960;-0.698;2024-01-15T11:01:52;100745.81;;;8.76;100.00
46718;BME280;32448;44.960;-0.698;2024-01-15T11:04:22;100771.50;;;8.97;100.00
46718;BME280;32448;44.960;-0.698;2024-01-15T11:06:52;100780.50;;;9.09;100.00
46718;BME280;32448;44.960;-0.698;2024-01-15T11:09:23;100751.84;;;9.11;100.00
46718;BME280;32448;44.960;-0.698;2024-01-15T11:12:11;100757.38;;;9.25;100.00
46718;BME280;32448;44.960;-0.698;2024-01-15T11:14:45;100758.50;;;9.36;100.00
46718;BME280;32448;44.960;-0.698;2024-01-15T11:17:13;100759.69;;;9.52;100.00
46718;BME280;32448;44.960;-0.698;2024-01-15T11:19:44;100762.50;;;9.62;100.00
46718;BME280;32448;44.960;-0.698;2024-01-15T11:24:57;100752.66;;;9.91;100.00
46718;BME280;32448;44.960;-0.698;2024-01-15T11:27:44;100755.56;;;10.05;100.00
46718;BME280;32448;44.960;-0.698;2024-01-15T11:30:14;100744.19;;;10.03;100.00
46718;BME280;32448;44.960;-0.698;2024-01-15T11:32:41;100755.56;;;10.05;100.00
46718;BME280;32448;44.960;-0.698;2024-01-15T11:35:10;100759.19;;;10.13;100.00
46718;BME280;32448;44.960;-0.698;2024-01-15T11:42:59;100750.66;;;10.21;100.00
46718;BME280;32448;44.960;-0.698;2024-01-15T11:45:27;100733.13;;;10.16;100.00
46718;BME280;32448;44.960;-0.698;2024-01-15T11:50:46;100745.59;;;10.31;100.00
46718;BME280;32448;44.960;-0.698;2024-01-15T11:53:44;100746.66;;;10.42;100.00
46718;BME280;32448;44.960;-0.698;2024-01-15T11:56:15;100740.59;;;10.44;100.00
46718;BME280;32448;44.960;-0.698;2024-01-15T11:58:43;100731.91;;;10.45;100.00
46718;BME280;32448;44.960;-0.698;2024-01-15T12:01:11;100702.16;;;10.36;100.00
46718;BME280;32448;44.960;-0.698;2024-01-15T12:03:38;100723.47;;;10.60;100.00
46718;BME280;32448;44.960;-0.698;2024-01-15T12:06:06;100719.25;;;10.70;100.00
46718;BME280;32448;44.960;-0.698;2024-01-15T12:08:33;100715.84;;;10.75;100.00
46718;BME280;32448;44.960;-0.698;2024-01-15T12:11:10;100707.19;;;10.79;100.00
46718;BME280;32448;44.960;-0.698;2024-01-15T12:13:40;100703.84;;;10.89;100.00
46718;BME280;32448;44.960;-0.698;2024-01-15T12:16:07;100695.28;;;11.00;100.00
46718;BME280;32448;44.960;-0.698;2024-01-15T12:18:35;100701.50;;;11.08;100.00
46718;BME280;32448;44.960;-0.698;2024-01-15T12:21:04;100698.19;;;11.21;100.00
46718;BME280;32448;44.960;-0.698;2024-01-15T12:23:30;100692.94;;;11.21;100.00
46718;BME280;32448;44.960;-0.698;2024-01-15T12:25:57;100693.81;;;11.20;100.00
46718;BME280;32448;44.960;-0.698;2024-01-15T12:28:27;100704.38;;;11.29;100.00
46718;BME280;32448;44.960;-0.698;2024-01-15T12:30:56;100706.19;;;11.33;100.00
46718;BME280;32448;44.960;-0.698;2024-01-15T12:33:23;100699.28;;;11.37;100.00
46718;BME280;32448;44.960;-0.698;2024-01-15T12:35:53;100700.19;;;11.42;100.00
46718;BME280;32448;44.960;-0.698;2024-01-15T12:38:19;100692.31;;;11.40;100.00
46718;BME280;32448;44.960;-0.698;2024-01-15T12:40:48;100680.09;;;11.39;100.00
46718;BME280;32448;44.960;-0.698;2024-01-15T12:43:15;100687.13;;;11.43;100.00
46718;BME280;32448;44.960;-0.698;2024-01-15T12:45:41;100688.06;;;11.50;100.00
46718;BME280;32448;44.960;-0.698;2024-01-15T12:48:10;100674.09;;;11.48;100.00
46718;BME280;32448;44.960;-0.698;2024-01-15T12:50:37;100678.50;;;11.52;100.00